sensor_id;sensor_type;location;lat;lon;timestamp;P1;durP1;ratioP1;P2;durP2;ratioP2
12535;SDS011;6334;48.696;2.114;2023-02-28T00:00:43;9.00;;;5.93;;
12535;SDS011;6334;48.696;2.114;2023-02-28T00:03:13;8.53;;;5.93;;
12535;SDS011;6334;48.696;2.114;2023-02-28T00:05:44;7.10;;;5.77;;
12535;SDS011;6334;48.696;2.114;2023-02-28T00:08:14;8.37;;;5.93;;
12535;SDS011;6334;48.696;2.114;2023-02-28T00:10:47;10.60;;;6.03;;
12535;SDS011;6334;48.696;2.114;2023-02-28T00:13:15;8.60;;;6.10;;
12535;SDS011;6334;48.696;2.114;2023-02-28T00:15:46;7.87;;;5.70;;
12535;SDS011;6334;48.696;2.114;2023-02-28T00:18:16;10.47;;;5.10;;
12535;SDS011;6334;48.696;2.114;2023-02-28T00:20:46;7.10;;;5.20;;
12535;SDS011;6334;48.696;2.114;2023-02-28T00:23:17;8.70;;;5.63;;
12535;SDS011;6334;48.696;2.114;2023-02-28T00:25:47;8.87;;;5.90;;
12535;SDS011;6334;48.696;2.114;2023-02-28T00:28:18;8.77;;;5.33;;
12535;SDS011;6334;48.696;2.114;2023-02-28T00:30:47;7.73;;;5.67;;
12535;SDS011;6334;48.696;2.114;2023-02-28T00:33:18;8.43;;;5.90;;
12535;SDS011;6334;48.696;2.114;2023-02-28T00:35:48;8.90;;;5.50;;
12535;SDS011;6334;48.696;2.114;2023-02-28T00:38:19;7.30;;;5.30;;
12535;SDS011;6334;48.696;2.114;2023-02-28T00:40:49;7.10;;;5.60;;
12535;SDS011;6334;48.696;2.114;2023-02-28T00:43:20;6.80;;;5.17;;
12535;SDS011;6334;48.696;2.114;2023-02-28T00:45:50;8.10;;;5.20;;
12535;SDS011;6334;48.696;2.114;2023-02-28T00:48:21;6.80;;;5.00;;
12535;SDS011;6334;48.696;2.114;2023-02-28T00:50:51;6.70;;;5.23;;
12535;SDS011;6334;48.696;2.114;2023-02-28T00:53:22;7.37;;;5.47;;
12535;SDS011;6334;48.696;2.114;2023-02-28T00:55:52;8.00;;;5.53;;
12535;SDS011;6334;48.696;2.114;2023-02-28T00:58:22;7.67;;;5.33;;
12535;SDS011;6334;48.696;2.114;2023-02-28T01:00:54;7.67;;;5.37;;
12535;SDS011;6334;48.696;2.114;2023-02-28T01:03:24;8.33;;;5.37;;
12535;SDS011;6334;48.696;2.114;2023-02-28T01:05:55;10.23;;;5.70;;
12535;SDS011;6334;48.696;2.114;2023-02-28T01:08:25;8.20;;;5.47;;
12535;SDS011;6334;48.696;2.114;2023-02-28T01:10:56;7.80;;;5.60;;
12535;SDS011;6334;48.696;2.114;2023-02-28T01:13:26;7.33;;;5.27;;
12535;SDS011;6334;48.696;2.114;2023-02-28T01:15:57;7.67;;;5.40;;
12535;SDS011;6334;48.696;2.114;2023-02-28T01:18:27;11.83;;;5.60;;
12535;SDS011;6334;48.696;2.114;2023-02-28T01:20:58;8.73;;;5.67;;
12535;SDS011;6334;48.696;2.114;2023-02-28T01:23:28;9.00;;;5.63;;
12535;SDS011;6334;48.696;2.114;2023-02-28T01:26:05;11.07;;;6.13;;
12535;SDS011;6334;48.696;2.114;2023-02-28T01:28:37;7.43;;;5.07;;
12535;SDS011;6334;48.696;2.114;2023-02-28T01:31:08;8.43;;;5.30;;
12535;SDS011;6334;48.696;2.114;2023-02-28T01:33:39;7.03;;;5.03;;
12535;SDS011;6334;48.696;2.114;2023-02-28T01:36:10;6.80;;;5.27;;
12535;SDS011;6334;48.696;2.114;2023-02-28T01:38:45;9.80;;;5.27;;
12535;SDS011;6334;48.696;2.114;2023-02-28T01:41:23;8.80;;;5.53;;
12535;SDS011;6334;48.696;2.114;2023-02-28T01:43:53;8.40;;;5.30;;
12535;SDS011;6334;48.696;2.114;2023-02-28T01:46:25;8.33;;;5.30;;
12535;SDS011;6334;48.696;2.114;2023-02-28T01:49:00;6.53;;;5.00;;
12535;SDS011;6334;48.696;2.114;2023-02-28T01:51:41;6.47;;;4.63;;
12535;SDS011;6334;48.696;2.114;2023-02-28T01:54:14;7.87;;;5.10;;
12535;SDS011;6334;48.696;2.114;2023-02-28T01:56:46;6.87;;;4.70;;
12535;SDS011;6334;48.696;2.114;2023-02-28T01:59:14;8.03;;;5.20;;
12535;SDS011;6334;48.696;2.114;2023-02-28T02:01:44;11.40;;;5.40;;
12535;SDS011;6334;48.696;2.114;2023-02-28T02:04:14;6.10;;;5.00;;
12535;SDS011;6334;48.696;2.114;2023-02-28T02:06:45;7.00;;;4.87;;
12535;SDS011;6334;48.696;2.114;2023-02-28T02:09:15;7.20;;;5.07;;
12535;SDS011;6334;48.696;2.114;2023-02-28T02:11:45;7.30;;;4.63;;
12535;SDS011;6334;48.696;2.114;2023-02-28T02:14:31;8.77;;;5.00;;
12535;SDS011;6334;48.696;2.114;2023-02-28T02:17:04;6.30;;;4.53;;
12535;SDS011;6334;48.696;2.114;2023-02-28T02:33:06;6.00;;;4.80;;
12535;SDS011;6334;48.696;2.114;2023-02-28T02:35:43;7.93;;;4.57;;
12535;SDS011;6334;48.696;2.114;2023-02-28T02:41:06;8.27;;;4.50;;
12535;SDS011;6334;48.696;2.114;2023-02-28T02:46:43;7.00;;;4.57;;
12535;SDS011;6334;48.696;2.114;2023-02-28T02:49:17;8.17;;;4.90;;
12535;SDS011;6334;48.696;2.114;2023-02-28T02:51:46;7.20;;;4.70;;
12535;SDS011;6334;48.696;2.114;2023-02-28T02:54:27;7.87;;;4.90;;
12535;SDS011;6334;48.696;2.114;2023-02-28T02:56:59;7.40;;;4.97;;
12535;SDS011;6334;48.696;2.114;2023-02-28T02:59:32;9.80;;;5.67;;
12535;SDS011;6334;48.696;2.114;2023-02-28T03:02:03;9.00;;;5.80;;
12535;SDS011;6334;48.696;2.114;2023-02-28T03:04:34;9.97;;;5.60;;
12535;SDS011;6334;48.696;2.114;2023-02-28T03:07:03;12.00;;;5.57;;
12535;SDS011;6334;48.696;2.114;2023-02-28T03:09:34;10.10;;;5.77;;
12535;SDS011;6334;48.696;2.114;2023-02-28T03:12:04;8.23;;;5.47;;
12535;SDS011;6334;48.696;2.114;2023-02-28T03:14:47;8.30;;;5.57;;
12535;SDS011;6334;48.696;2.114;2023-02-28T03:25:30;8.10;;;4.90;;
12535;SDS011;6334;48.696;2.114;2023-02-28T03:28:00;6.50;;;4.70;;
12535;SDS011;6334;48.696;2.114;2023-02-28T03:30:39;7.83;;;5.10;;
12535;SDS011;6334;48.696;2.114;2023-02-28T03:33:12;7.90;;;5.23;;
12535;SDS011;6334;48.696;2.114;2023-02-28T03:35:47;8.57;;;4.93;;
12535;SDS011;6334;48.696;2.114;2023-02-28T03:38:35;6.03;;;4.50;;
12535;SDS011;6334;48.696;2.114;2023-02-28T03:41:05;6.80;;;4.47;;
12535;SDS011;6334;48.696;2.114;2023-02-28T03:43:34;6.40;;;4.57;;
12535;SDS011;6334;48.696;2.114;2023-02-28T03:46:06;7.77;;;4.37;;
12535;SDS011;6334;48.696;2.114;2023-02-28T03:48:40;6.40;;;4.37;;
12535;SDS011;6334;48.696;2.114;2023-02-28T03:51:09;6.07;;;4.47;;
12535;SDS011;6334;48.696;2.114;2023-02-28T03:53:40;8.17;;;4.50;;
12535;SDS011;6334;48.696;2.114;2023-02-28T03:56:16;6.70;;;4.50;;
12535;SDS011;6334;48.696;2.114;2023-02-28T03:58:51;6.47;;;4.53;;
12535;SDS011;6334;48.696;2.114;2023-02-28T04:01:47;5.60;;;4.30;;
12535;SDS011;6334;48.696;2.114;2023-02-28T04:04:07;5.07;;;4.20;;
12535;SDS011;6334;48.696;2.114;2023-02-28T04:06:38;6.97;;;4.50;;
12535;SDS011;6334;48.696;2.114;2023-02-28T04:09:09;6.10;;;4.33;;
12535;SDS011;6334;48.696;2.114;2023-02-28T04:11:39;7.67;;;4.10;;
12535;SDS011;6334;48.696;2.114;2023-02-28T04:14:09;4.90;;;3.73;;
12535;SDS011;6334;48.696;2.114;2023-02-28T04:16:39;6.33;;;4.53;;
12535;SDS011;6334;48.696;2.114;2023-02-28T04:19:09;4.33;;;3.93;;
12535;SDS011;6334;48.696;2.114;2023-02-28T04:21:40;6.60;;;4.50;;
12535;SDS011;6334;48.696;2.114;2023-02-28T04:24:11;7.90;;;4.37;;
12535;SDS011;6334;48.696;2.114;2023-02-28T04:26:46;4.80;;;4.30;;
12535;SDS011;6334;48.696;2.114;2023-02-28T04:29:14;4.60;;;4.13;;
12535;SDS011;6334;48.696;2.114;2023-02-28T04:31:44;6.10;;;4.20;;
12535;SDS011;6334;48.696;2.114;2023-02-28T04:34:14;7.47;;;4.20;;
12535;SDS011;6334;48.696;2.114;2023-02-28T04:36:45;4.87;;;4.03;;
12535;SDS011;6334;48.696;2.114;2023-02-28T04:39:18;5.70;;;4.03;;
12535;SDS011;6334;48.696;2.114;2023-02-28T04:41:49;5.97;;;4.30;;
12535;SDS011;6334;48.696;2.114;2023-02-28T04:44:19;5.83;;;4.07;;
12535;SDS011;6334;48.696;2.114;2023-02-28T04:46:50;6.33;;;4.10;;
12535;SDS011;6334;48.696;2.114;2023-02-28T04:49:20;5.17;;;4.10;;
12535;SDS011;6334;48.696;2.114;2023-02-28T04:51:51;5.80;;;4.20;;
12535;SDS011;6334;48.696;2.114;2023-02-28T04:54:21;5.60;;;4.07;;
12535;SDS011;6334;48.696;2.114;2023-02-28T04:56:52;6.83;;;4.20;;
12535;SDS011;6334;48.696;2.114;2023-02-28T04:59:22;6.40;;;4.17;;
12535;SDS011;6334;48.696;2.114;2023-02-28T05:01:53;5.30;;;4.33;;
12535;SDS011;6334;48.696;2.114;2023-02-28T05:04:23;4.87;;;4.20;;
12535;SDS011;6334;48.696;2.114;2023-02-28T05:06:54;5.63;;;4.00;;
12535;SDS011;6334;48.696;2.114;2023-02-28T05:09:24;6.50;;;4.40;;
12535;SDS011;6334;48.696;2.114;2023-02-28T05:11:55;5.00;;;4.00;;
12535;SDS011;6334;48.696;2.114;2023-02-28T05:14:25;7.90;;;4.27;;
12535;SDS011;6334;48.696;2.114;2023-02-28T05:16:56;5.10;;;4.07;;
12535;SDS011;6334;48.696;2.114;2023-02-28T05:19:26;4.93;;;4.20;;
12535;SDS011;6334;48.696;2.114;2023-02-28T05:21:57;4.50;;;4.00;;
12535;SDS011;6334;48.696;2.114;2023-02-28T05:24:27;5.97;;;4.13;;
12535;SDS011;6334;48.696;2.114;2023-02-28T05:26:58;5.93;;;4.10;;
12535;SDS011;6334;48.696;2.114;2023-02-28T05:29:28;5.83;;;4.30;;
12535;SDS011;6334;48.696;2.114;2023-02-28T05:31:58;7.10;;;4.33;;
12535;SDS011;6334;48.696;2.114;2023-02-28T05:34:29;6.53;;;4.20;;
12535;SDS011;6334;48.696;2.114;2023-02-28T05:36:59;9.87;;;4.30;;
12535;SDS011;6334;48.696;2.114;2023-02-28T05:39:30;4.83;;;4.00;;
12535;SDS011;6334;48.696;2.114;2023-02-28T05:42:01;6.27;;;4.47;;
12535;SDS011;6334;48.696;2.114;2023-02-28T05:44:32;6.47;;;4.50;;
12535;SDS011;6334;48.696;2.114;2023-02-28T05:47:02;6.70;;;4.33;;
12535;SDS011;6334;48.696;2.114;2023-02-28T05:49:33;7.70;;;4.53;;
12535;SDS011;6334;48.696;2.114;2023-02-28T05:52:03;6.10;;;4.30;;
12535;SDS011;6334;48.696;2.114;2023-02-28T05:54:34;6.30;;;4.43;;
12535;SDS011;6334;48.696;2.114;2023-02-28T05:57:04;5.60;;;4.37;;
12535;SDS011;6334;48.696;2.114;2023-02-28T05:59:35;6.80;;;4.37;;
12535;SDS011;6334;48.696;2.114;2023-02-28T06:02:06;8.83;;;4.67;;
12535;SDS011;6334;48.696;2.114;2023-02-28T06:04:36;6.10;;;4.57;;
12535;SDS011;6334;48.696;2.114;2023-02-28T06:07:06;6.40;;;4.30;;
12535;SDS011;6334;48.696;2.114;2023-02-28T06:09:37;6.53;;;4.27;;
12535;SDS011;6334;48.696;2.114;2023-02-28T06:12:07;5.73;;;4.50;;
12535;SDS011;6334;48.696;2.114;2023-02-28T06:14:37;8.40;;;4.47;;
12535;SDS011;6334;48.696;2.114;2023-02-28T06:17:08;7.00;;;5.00;;
12535;SDS011;6334;48.696;2.114;2023-02-28T06:19:38;8.37;;;5.00;;
12535;SDS011;6334;48.696;2.114;2023-02-28T06:22:08;6.97;;;4.90;;
12535;SDS011;6334;48.696;2.114;2023-02-28T06:24:38;8.63;;;4.90;;
12535;SDS011;6334;48.696;2.114;2023-02-28T06:27:09;6.90;;;4.50;;
12535;SDS011;6334;48.696;2.114;2023-02-28T06:29:39;8.33;;;4.97;;
12535;SDS011;6334;48.696;2.114;2023-02-28T06:32:10;8.47;;;4.70;;
12535;SDS011;6334;48.696;2.114;2023-02-28T06:34:40;7.37;;;4.60;;
12535;SDS011;6334;48.696;2.114;2023-02-28T06:37:11;10.33;;;5.20;;
12535;SDS011;6334;48.696;2.114;2023-02-28T06:39:41;7.57;;;4.90;;
12535;SDS011;6334;48.696;2.114;2023-02-28T06:42:12;8.20;;;5.20;;
12535;SDS011;6334;48.696;2.114;2023-02-28T06:44:42;7.47;;;5.27;;
12535;SDS011;6334;48.696;2.114;2023-02-28T06:47:13;8.10;;;5.40;;
12535;SDS011;6334;48.696;2.114;2023-02-28T06:49:43;11.13;;;5.77;;
12535;SDS011;6334;48.696;2.114;2023-02-28T06:52:13;9.80;;;5.90;;
12535;SDS011;6334;48.696;2.114;2023-02-28T06:54:44;9.67;;;5.80;;
12535;SDS011;6334;48.696;2.114;2023-02-28T06:57:15;9.13;;;5.63;;
12535;SDS011;6334;48.696;2.114;2023-02-28T06:59:45;7.83;;;5.33;;
12535;SDS011;6334;48.696;2.114;2023-02-28T07:02:15;7.13;;;5.50;;
12535;SDS011;6334;48.696;2.114;2023-02-28T07:04:46;9.90;;;5.93;;
12535;SDS011;6334;48.696;2.114;2023-02-28T07:07:16;10.83;;;6.23;;
12535;SDS011;6334;48.696;2.114;2023-02-28T07:09:47;11.27;;;6.40;;
12535;SDS011;6334;48.696;2.114;2023-02-28T07:12:17;8.90;;;5.80;;
12535;SDS011;6334;48.696;2.114;2023-02-28T07:14:47;8.20;;;5.80;;
12535;SDS011;6334;48.696;2.114;2023-02-28T07:17:19;12.23;;;6.77;;
12535;SDS011;6334;48.696;2.114;2023-02-28T07:19:55;10.00;;;6.30;;
12535;SDS011;6334;48.696;2.114;2023-02-28T07:22:26;12.23;;;7.00;;
12535;SDS011;6334;48.696;2.114;2023-02-28T07:24:56;9.97;;;6.27;;
12535;SDS011;6334;48.696;2.114;2023-02-28T07:27:26;9.17;;;6.70;;
12535;SDS011;6334;48.696;2.114;2023-02-28T07:29:57;11.47;;;7.00;;
12535;SDS011;6334;48.696;2.114;2023-02-28T07:32:27;11.37;;;6.83;;
12535;SDS011;6334;48.696;2.114;2023-02-28T07:34:58;11.57;;;6.90;;
12535;SDS011;6334;48.696;2.114;2023-02-28T07:37:29;12.53;;;7.33;;
12535;SDS011;6334;48.696;2.114;2023-02-28T07:39:59;13.13;;;7.40;;
12535;SDS011;6334;48.696;2.114;2023-02-28T07:42:29;11.87;;;7.73;;
12535;SDS011;6334;48.696;2.114;2023-02-28T07:45:00;14.40;;;7.20;;
12535;SDS011;6334;48.696;2.114;2023-02-28T07:47:31;11.43;;;7.37;;
12535;SDS011;6334;48.696;2.114;2023-02-28T07:50:01;11.00;;;7.37;;
12535;SDS011;6334;48.696;2.114;2023-02-28T07:52:31;12.07;;;7.63;;
12535;SDS011;6334;48.696;2.114;2023-02-28T07:55:02;12.87;;;7.30;;
12535;SDS011;6334;48.696;2.114;2023-02-28T07:57:32;11.70;;;7.33;;
12535;SDS011;6334;48.696;2.114;2023-02-28T08:00:04;14.23;;;8.47;;
12535;SDS011;6334;48.696;2.114;2023-02-28T08:02:33;13.30;;;7.57;;
12535;SDS011;6334;48.696;2.114;2023-02-28T08:05:04;13.63;;;7.60;;
12535;SDS011;6334;48.696;2.114;2023-02-28T08:07:34;13.47;;;8.63;;
12535;SDS011;6334;48.696;2.114;2023-02-28T08:10:05;12.10;;;7.93;;
12535;SDS011;6334;48.696;2.114;2023-02-28T08:12:35;12.97;;;8.83;;
12535;SDS011;6334;48.696;2.114;2023-02-28T08:15:06;15.67;;;8.93;;
12535;SDS011;6334;48.696;2.114;2023-02-28T08:17:36;15.30;;;9.27;;
12535;SDS011;6334;48.696;2.114;2023-02-28T08:20:07;15.53;;;9.07;;
12535;SDS011;6334;48.696;2.114;2023-02-28T08:22:37;13.30;;;8.93;;
12535;SDS011;6334;48.696;2.114;2023-02-28T08:25:08;13.27;;;8.50;;
12535;SDS011;6334;48.696;2.114;2023-02-28T08:27:38;14.47;;;8.40;;
12535;SDS011;6334;48.696;2.114;2023-02-28T08:30:12;15.00;;;8.73;;
12535;SDS011;6334;48.696;2.114;2023-02-28T08:32:42;13.27;;;9.00;;
12535;SDS011;6334;48.696;2.114;2023-02-28T08:35:12;13.10;;;8.37;;
12535;SDS011;6334;48.696;2.114;2023-02-28T08:37:43;15.67;;;8.87;;
12535;SDS011;6334;48.696;2.114;2023-02-28T08:40:13;11.70;;;8.13;;
12535;SDS011;6334;48.696;2.114;2023-02-28T08:42:44;13.27;;;7.97;;
12535;SDS011;6334;48.696;2.114;2023-02-28T08:45:14;14.53;;;8.17;;
12535;SDS011;6334;48.696;2.114;2023-02-28T08:47:45;13.67;;;7.53;;
12535;SDS011;6334;48.696;2.114;2023-02-28T08:50:15;14.73;;;8.17;;
12535;SDS011;6334;48.696;2.114;2023-02-28T08:52:46;12.50;;;7.67;;
12535;SDS011;6334;48.696;2.114;2023-02-28T08:55:16;14.07;;;8.00;;
12535;SDS011;6334;48.696;2.114;2023-02-28T08:57:47;13.90;;;8.03;;
12535;SDS011;6334;48.696;2.114;2023-02-28T09:00:17;10.63;;;7.43;;
12535;SDS011;6334;48.696;2.114;2023-02-28T09:02:47;11.70;;;7.73;;
12535;SDS011;6334;48.696;2.114;2023-02-28T09:05:19;14.60;;;8.00;;
12535;SDS011;6334;48.696;2.114;2023-02-28T09:07:49;13.27;;;8.07;;
12535;SDS011;6334;48.696;2.114;2023-02-28T09:10:20;12.80;;;7.70;;
12535;SDS011;6334;48.696;2.114;2023-02-28T09:12:50;11.70;;;7.37;;
12535;SDS011;6334;48.696;2.114;2023-02-28T09:15:21;11.67;;;7.70;;
12535;SDS011;6334;48.696;2.114;2023-02-28T09:17:53;11.87;;;7.40;;
12535;SDS011;6334;48.696;2.114;2023-02-28T09:20:24;11.47;;;7.53;;
12535;SDS011;6334;48.696;2.114;2023-02-28T09:22:54;10.67;;;7.40;;
12535;SDS011;6334;48.696;2.114;2023-02-28T09:25:25;9.73;;;6.13;;
12535;SDS011;6334;48.696;2.114;2023-02-28T09:27:55;11.53;;;6.77;;
12535;SDS011;6334;48.696;2.114;2023-02-28T09:30:25;12.83;;;7.17;;
12535;SDS011;6334;48.696;2.114;2023-02-28T09:32:56;10.57;;;6.93;;
12535;SDS011;6334;48.696;2.114;2023-02-28T09:35:27;10.07;;;6.30;;
12535;SDS011;6334;48.696;2.114;2023-02-28T09:37:57;9.97;;;6.07;;
12535;SDS011;6334;48.696;2.114;2023-02-28T09:40:28;10.93;;;6.10;;
12535;SDS011;6334;48.696;2.114;2023-02-28T09:42:58;10.20;;;6.40;;
12535;SDS011;6334;48.696;2.114;2023-02-28T09:45:39;10.77;;;6.10;;
12535;SDS011;6334;48.696;2.114;2023-02-28T09:48:10;10.10;;;6.17;;
12535;SDS011;6334;48.696;2.114;2023-02-28T09:50:40;11.33;;;5.83;;
12535;SDS011;6334;48.696;2.114;2023-02-28T09:53:13;9.20;;;5.70;;
12535;SDS011;6334;48.696;2.114;2023-02-28T09:55:57;8.27;;;5.30;;
12535;SDS011;6334;48.696;2.114;2023-02-28T09:58:33;7.90;;;5.37;;
12535;SDS011;6334;48.696;2.114;2023-02-28T10:01:12;8.07;;;5.27;;
12535;SDS011;6334;48.696;2.114;2023-02-28T10:06:26;10.17;;;5.57;;
12535;SDS011;6334;48.696;2.114;2023-02-28T10:08:59;7.87;;;4.90;;
12535;SDS011;6334;48.696;2.114;2023-02-28T10:11:32;11.03;;;5.43;;
12535;SDS011;6334;48.696;2.114;2023-02-28T10:14:06;11.07;;;5.40;;
12535;SDS011;6334;48.696;2.114;2023-02-28T10:16:53;8.00;;;5.37;;
12535;SDS011;6334;48.696;2.114;2023-02-28T10:19:24;8.27;;;5.07;;
12535;SDS011;6334;48.696;2.114;2023-02-28T10:22:03;10.30;;;4.90;;
12535;SDS011;6334;48.696;2.114;2023-02-28T10:24:30;8.67;;;5.73;;
12535;SDS011;6334;48.696;2.114;2023-02-28T10:27:00;8.73;;;5.67;;
12535;SDS011;6334;48.696;2.114;2023-02-28T10:29:31;9.43;;;5.60;;
12535;SDS011;6334;48.696;2.114;2023-02-28T10:32:01;9.60;;;4.90;;
12535;SDS011;6334;48.696;2.114;2023-02-28T10:34:30;8.93;;;5.30;;
12535;SDS011;6334;48.696;2.114;2023-02-28T10:37:01;7.53;;;4.87;;
12535;SDS011;6334;48.696;2.114;2023-02-28T10:39:39;7.90;;;5.23;;
12535;SDS011;6334;48.696;2.114;2023-02-28T10:44:49;7.50;;;4.90;;
12535;SDS011;6334;48.696;2.114;2023-02-28T10:47:20;6.80;;;5.00;;
12535;SDS011;6334;48.696;2.114;2023-02-28T10:49:50;10.13;;;5.40;;
12535;SDS011;6334;48.696;2.114;2023-02-28T10:52:33;8.00;;;5.27;;
12535;SDS011;6334;48.696;2.114;2023-02-28T10:57:50;9.47;;;5.23;;
12535;SDS011;6334;48.696;2.114;2023-02-28T11:00:21;7.67;;;5.00;;
12535;SDS011;6334;48.696;2.114;2023-02-28T11:02:51;7.87;;;5.30;;
12535;SDS011;6334;48.696;2.114;2023-02-28T11:05:33;7.73;;;5.10;;
12535;SDS011;6334;48.696;2.114;2023-02-28T11:08:15;9.10;;;5.70;;
12535;SDS011;6334;48.696;2.114;2023-02-28T11:10:47;9.77;;;5.90;;
12535;SDS011;6334;48.696;2.114;2023-02-28T11:13:17;10.57;;;5.70;;
12535;SDS011;6334;48.696;2.114;2023-02-28T11:15:54;8.20;;;5.40;;
12535;SDS011;6334;48.696;2.114;2023-02-28T11:18:30;8.23;;;5.00;;
12535;SDS011;6334;48.696;2.114;2023-02-28T11:21:00;6.97;;;4.97;;
12535;SDS011;6334;48.696;2.114;2023-02-28T11:23:30;7.47;;;5.40;;
12535;SDS011;6334;48.696;2.114;2023-02-28T11:26:02;7.67;;;5.03;;
12535;SDS011;6334;48.696;2.114;2023-02-28T11:28:38;6.47;;;4.90;;
12535;SDS011;6334;48.696;2.114;2023-02-28T11:33:44;7.77;;;4.07;;
12535;SDS011;6334;48.696;2.114;2023-02-28T11:36:21;5.43;;;3.80;;
12535;SDS011;6334;48.696;2.114;2023-02-28T11:39:07;6.20;;;3.80;;
12535;SDS011;6334;48.696;2.114;2023-02-28T11:44:43;5.73;;;4.00;;
12535;SDS011;6334;48.696;2.114;2023-02-28T11:47:29;5.87;;;4.53;;
12535;SDS011;6334;48.696;2.114;2023-02-28T11:55:26;6.80;;;4.13;;
12535;SDS011;6334;48.696;2.114;2023-02-28T11:57:57;7.47;;;4.53;;
12535;SDS011;6334;48.696;2.114;2023-02-28T12:06:38;5.43;;;4.27;;
12535;SDS011;6334;48.696;2.114;2023-02-28T12:12:21;5.77;;;4.20;;
12535;SDS011;6334;48.696;2.114;2023-02-28T12:20:46;6.53;;;4.77;;
12535;SDS011;6334;48.696;2.114;2023-02-28T12:26:23;6.67;;;4.93;;
12535;SDS011;6334;48.696;2.114;2023-02-28T12:31:49;7.07;;;4.90;;
12535;SDS011;6334;48.696;2.114;2023-02-28T12:34:20;6.23;;;4.43;;
12535;SDS011;6334;48.696;2.114;2023-02-28T12:36:50;6.90;;;4.80;;
12535;SDS011;6334;48.696;2.114;2023-02-28T12:39:22;7.10;;;4.60;;
12535;SDS011;6334;48.696;2.114;2023-02-28T12:41:54;5.23;;;4.70;;
12535;SDS011;6334;48.696;2.114;2023-02-28T12:44:28;6.20;;;4.70;;
12535;SDS011;6334;48.696;2.114;2023-02-28T12:47:04;6.50;;;4.60;;
12535;SDS011;6334;48.696;2.114;2023-02-28T12:49:40;7.47;;;5.00;;
12535;SDS011;6334;48.696;2.114;2023-02-28T12:52:09;6.67;;;4.70;;
12535;SDS011;6334;48.696;2.114;2023-02-28T12:54:53;8.57;;;4.77;;
12535;SDS011;6334;48.696;2.114;2023-02-28T12:57:38;7.27;;;4.80;;
12535;SDS011;6334;48.696;2.114;2023-02-28T13:06:03;5.63;;;4.50;;
12535;SDS011;6334;48.696;2.114;2023-02-28T13:11:42;5.43;;;4.33;;
12535;SDS011;6334;48.696;2.114;2023-02-28T13:19:30;6.63;;;4.57;;
12535;SDS011;6334;48.696;2.114;2023-02-28T13:22:00;5.97;;;4.27;;
12535;SDS011;6334;48.696;2.114;2023-02-28T13:27:12;6.33;;;4.37;;
12535;SDS011;6334;48.696;2.114;2023-02-28T13:29:41;5.77;;;4.47;;
12535;SDS011;6334;48.696;2.114;2023-02-28T13:34:47;5.37;;;4.40;;
12535;SDS011;6334;48.696;2.114;2023-02-28T13:39:51;6.57;;;4.20;;
12535;SDS011;6334;48.696;2.114;2023-02-28T13:47:39;6.13;;;4.50;;
12535;SDS011;6334;48.696;2.114;2023-02-28T13:50:21;6.60;;;4.60;;
12535;SDS011;6334;48.696;2.114;2023-02-28T13:55:46;5.87;;;4.60;;
12535;SDS011;6334;48.696;2.114;2023-02-28T14:07:07;5.37;;;4.10;;
12535;SDS011;6334;48.696;2.114;2023-02-28T14:09:38;7.30;;;4.90;;
12535;SDS011;6334;48.696;2.114;2023-02-28T14:15:01;6.70;;;4.43;;
12535;SDS011;6334;48.696;2.114;2023-02-28T14:17:31;4.73;;;4.23;;
12535;SDS011;6334;48.696;2.114;2023-02-28T14:20:01;4.90;;;3.97;;
12535;SDS011;6334;48.696;2.114;2023-02-28T14:25:09;8.90;;;4.60;;
12535;SDS011;6334;48.696;2.114;2023-02-28T14:36:41;6.00;;;4.10;;
12535;SDS011;6334;48.696;2.114;2023-02-28T14:39:13;6.80;;;4.30;;
12535;SDS011;6334;48.696;2.114;2023-02-28T14:41:42;5.20;;;4.03;;
12535;SDS011;6334;48.696;2.114;2023-02-28T14:44:19;6.07;;;4.07;;
12535;SDS011;6334;48.696;2.114;2023-02-28T14:46:49;5.47;;;4.20;;
12535;SDS011;6334;48.696;2.114;2023-02-28T14:49:19;5.93;;;4.30;;
12535;SDS011;6334;48.696;2.114;2023-02-28T14:51:49;4.37;;;4.00;;
12535;SDS011;6334;48.696;2.114;2023-02-28T14:54:20;4.93;;;4.17;;
12535;SDS011;6334;48.696;2.114;2023-02-28T14:56:50;9.13;;;4.23;;
12535;SDS011;6334;48.696;2.114;2023-02-28T14:59:26;4.40;;;4.00;;
12535;SDS011;6334;48.696;2.114;2023-02-28T15:02:14;4.43;;;3.87;;
12535;SDS011;6334;48.696;2.114;2023-02-28T15:04:42;5.07;;;4.23;;
12535;SDS011;6334;48.696;2.114;2023-02-28T15:07:13;5.20;;;4.03;;
12535;SDS011;6334;48.696;2.114;2023-02-28T15:09:43;5.77;;;4.10;;
12535;SDS011;6334;48.696;2.114;2023-02-28T15:12:14;6.00;;;4.30;;
12535;SDS011;6334;48.696;2.114;2023-02-28T15:14:44;4.50;;;4.10;;
12535;SDS011;6334;48.696;2.114;2023-02-28T15:17:17;5.07;;;4.10;;
12535;SDS011;6334;48.696;2.114;2023-02-28T15:19:46;6.47;;;4.70;;
12535;SDS011;6334;48.696;2.114;2023-02-28T15:22:17;5.77;;;4.07;;
12535;SDS011;6334;48.696;2.114;2023-02-28T15:24:47;7.07;;;4.20;;
12535;SDS011;6334;48.696;2.114;2023-02-28T15:27:23;4.40;;;4.00;;
12535;SDS011;6334;48.696;2.114;2023-02-28T15:29:59;5.43;;;4.23;;
12535;SDS011;6334;48.696;2.114;2023-02-28T15:32:35;6.73;;;4.40;;
12535;SDS011;6334;48.696;2.114;2023-02-28T15:35:18;4.47;;;3.87;;
12535;SDS011;6334;48.696;2.114;2023-02-28T15:38:00;7.00;;;4.07;;
12535;SDS011;6334;48.696;2.114;2023-02-28T15:40:26;4.70;;;4.23;;
12535;SDS011;6334;48.696;2.114;2023-02-28T15:43:00;4.67;;;4.20;;
12535;SDS011;6334;48.696;2.114;2023-02-28T15:45:34;5.73;;;4.33;;
12535;SDS011;6334;48.696;2.114;2023-02-28T15:48:13;4.40;;;4.00;;
12535;SDS011;6334;48.696;2.114;2023-02-28T15:50:50;4.20;;;3.80;;
12535;SDS011;6334;48.696;2.114;2023-02-28T15:53:23;4.83;;;4.10;;
12535;SDS011;6334;48.696;2.114;2023-02-28T15:55:53;5.60;;;4.20;;
12535;SDS011;6334;48.696;2.114;2023-02-28T15:58:22;6.90;;;4.23;;
12535;SDS011;6334;48.696;2.114;2023-02-28T16:01:00;4.77;;;4.00;;
12535;SDS011;6334;48.696;2.114;2023-02-28T16:03:48;4.67;;;4.20;;
12535;SDS011;6334;48.696;2.114;2023-02-28T16:06:30;4.57;;;3.80;;
12535;SDS011;6334;48.696;2.114;2023-02-28T16:09:06;4.77;;;4.00;;
12535;SDS011;6334;48.696;2.114;2023-02-28T16:11:37;4.90;;;4.03;;
12535;SDS011;6334;48.696;2.114;2023-02-28T16:14:06;4.63;;;4.23;;
12535;SDS011;6334;48.696;2.114;2023-02-28T16:16:41;6.13;;;4.40;;
12535;SDS011;6334;48.696;2.114;2023-02-28T16:19:07;6.40;;;4.90;;
12535;SDS011;6334;48.696;2.114;2023-02-28T16:21:37;7.13;;;4.53;;
12535;SDS011;6334;48.696;2.114;2023-02-28T16:24:08;5.17;;;4.20;;
12535;SDS011;6334;48.696;2.114;2023-02-28T16:26:39;5.90;;;4.03;;
12535;SDS011;6334;48.696;2.114;2023-02-28T16:29:09;4.50;;;4.10;;
12535;SDS011;6334;48.696;2.114;2023-02-28T16:31:39;5.50;;;3.93;;
12535;SDS011;6334;48.696;2.114;2023-02-28T16:34:09;5.63;;;3.90;;
12535;SDS011;6334;48.696;2.114;2023-02-28T16:36:40;5.37;;;4.03;;
12535;SDS011;6334;48.696;2.114;2023-02-28T16:39:10;6.13;;;4.20;;
12535;SDS011;6334;48.696;2.114;2023-02-28T16:41:44;6.10;;;4.60;;
12535;SDS011;6334;48.696;2.114;2023-02-28T16:44:18;6.17;;;4.20;;
12535;SDS011;6334;48.696;2.114;2023-02-28T16:46:44;4.23;;;3.80;;
12535;SDS011;6334;48.696;2.114;2023-02-28T16:49:14;6.97;;;4.33;;
12535;SDS011;6334;48.696;2.114;2023-02-28T16:51:45;6.20;;;4.43;;
12535;SDS011;6334;48.696;2.114;2023-02-28T16:54:15;4.60;;;4.10;;
12535;SDS011;6334;48.696;2.114;2023-02-28T16:56:46;5.60;;;3.90;;
12535;SDS011;6334;48.696;2.114;2023-02-28T16:59:18;5.60;;;4.43;;
12535;SDS011;6334;48.696;2.114;2023-02-28T17:01:46;5.20;;;4.00;;
12535;SDS011;6334;48.696;2.114;2023-02-28T17:04:17;6.47;;;4.30;;
12535;SDS011;6334;48.696;2.114;2023-02-28T17:06:47;7.33;;;4.60;;
12535;SDS011;6334;48.696;2.114;2023-02-28T17:09:21;6.03;;;4.20;;
12535;SDS011;6334;48.696;2.114;2023-02-28T17:11:51;5.63;;;4.37;;
12535;SDS011;6334;48.696;2.114;2023-02-28T17:14:21;5.70;;;4.30;;
12535;SDS011;6334;48.696;2.114;2023-02-28T17:16:52;5.80;;;4.37;;
12535;SDS011;6334;48.696;2.114;2023-02-28T17:19:22;5.13;;;4.33;;
12535;SDS011;6334;48.696;2.114;2023-02-28T17:21:53;5.13;;;3.83;;
12535;SDS011;6334;48.696;2.114;2023-02-28T17:24:23;5.27;;;3.80;;
12535;SDS011;6334;48.696;2.114;2023-02-28T17:26:53;5.73;;;4.47;;